sensor_id;sensor_type;location;lat;lon;timestamp;P1;durP1;ratioP1;P2;durP2;ratioP2
54167;SDS011;68429;50.958;3.592;2023-08-07T00:00:22;7.10;;;3.25;;
54167;SDS011;68429;50.958;3.592;2023-08-07T00:02:48;8.70;;;2.70;;
54167;SDS011;68429;50.958;3.592;2023-08-07T00:05:14;11.77;;;2.90;;
54167;SDS011;68429;50.958;3.592;2023-08-07T00:07:41;13.27;;;4.03;;
54167;SDS011;68429;50.958;3.592;2023-08-07T00:10:07;7.78;;;2.95;;
54167;SDS011;68429;50.958;3.592;2023-08-07T00:12:33;6.30;;;2.67;;
54167;SDS011;68429;50.958;3.592;2023-08-07T00:14:59;8.45;;;3.00;;
54167;SDS011;68429;50.958;3.592;2023-08-07T00:17:25;9.18;;;2.85;;
54167;SDS011;68429;50.958;3.592;2023-08-07T00:19:51;5.97;;;2.65;;
54167;SDS011;68429;50.958;3.592;2023-08-07T00:22:17;8.77;;;2.78;;
54167;SDS011;68429;50.958;3.592;2023-08-07T00:24:42;4.07;;;2.60;;
54167;SDS011;68429;50.958;3.592;2023-08-07T00:27:08;6.97;;;2.67;;
54167;SDS011;68429;50.958;3.592;2023-08-07T00:29:35;6.63;;;2.80;;
54167;SDS011;68429;50.958;3.592;2023-08-07T00:32:01;9.70;;;2.60;;
54167;SDS011;68429;50.958;3.592;2023-08-07T00:34:27;13.40;;;3.40;;
54167;SDS011;68429;50.958;3.592;2023-08-07T00:36:53;8.73;;;3.30;;
54167;SDS011;68429;50.958;3.592;2023-08-07T00:39:19;9.60;;;2.97;;
54167;SDS011;68429;50.958;3.592;2023-08-07T00:41:44;9.30;;;2.70;;
54167;SDS011;68429;50.958;3.592;2023-08-07T00:44:10;12.15;;;2.85;;
54167;SDS011;68429;50.958;3.592;2023-08-07T00:46:35;7.97;;;2.63;;
54167;SDS011;68429;50.958;3.592;2023-08-07T00:49:04;9.65;;;3.38;;
54167;SDS011;68429;50.958;3.592;2023-08-07T00:51:30;7.13;;;2.80;;
54167;SDS011;68429;50.958;3.592;2023-08-07T00:53:57;5.75;;;2.58;;
54167;SDS011;68429;50.958;3.592;2023-08-07T00:56:24;7.20;;;3.38;;
54167;SDS011;68429;50.958;3.592;2023-08-07T00:58:51;12.23;;;3.38;;
54167;SDS011;68429;50.958;3.592;2023-08-07T01:01:17;10.52;;;2.60;;
54167;SDS011;68429;50.958;3.592;2023-08-07T01:03:43;12.02;;;2.75;;
54167;SDS011;68429;50.958;3.592;2023-08-07T01:06:09;12.63;;;3.33;;
54167;SDS011;68429;50.958;3.592;2023-08-07T01:08:34;8.02;;;3.08;;
54167;SDS011;68429;50.958;3.592;2023-08-07T01:16:45;7.43;;;3.13;;
54167;SDS011;68429;50.958;3.592;2023-08-07T01:19:22;9.25;;;3.10;;
54167;SDS011;68429;50.958;3.592;2023-08-07T01:21:50;7.18;;;3.10;;
54167;SDS011;68429;50.958;3.592;2023-08-07T01:24:28;4.70;;;2.70;;
54167;SDS011;68429;50.958;3.592;2023-08-07T01:26:54;4.43;;;3.08;;
54167;SDS011;68429;50.958;3.592;2023-08-07T01:29:26;7.13;;;3.08;;
54167;SDS011;68429;50.958;3.592;2023-08-07T01:32:00;3.72;;;2.97;;
54167;SDS011;68429;50.958;3.592;2023-08-07T01:34:31;8.48;;;2.92;;
54167;SDS011;68429;50.958;3.592;2023-08-07T01:36:59;10.60;;;3.10;;
54167;SDS011;68429;50.958;3.592;2023-08-07T01:39:27;7.65;;;2.72;;
54167;SDS011;68429;50.958;3.592;2023-08-07T01:41:55;9.82;;;3.22;;
54167;SDS011;68429;50.958;3.592;2023-08-07T01:44:20;5.18;;;2.28;;
54167;SDS011;68429;50.958;3.592;2023-08-07T01:46:46;9.02;;;3.08;;
54167;SDS011;68429;50.958;3.592;2023-08-07T01:49:12;6.35;;;2.95;;
54167;SDS011;68429;50.958;3.592;2023-08-07T01:51:37;5.97;;;2.60;;
54167;SDS011;68429;50.958;3.592;2023-08-07T01:54:03;9.57;;;2.85;;
54167;SDS011;68429;50.958;3.592;2023-08-07T01:56:29;7.18;;;2.63;;
54167;SDS011;68429;50.958;3.592;2023-08-07T01:58:54;5.85;;;2.85;;
54167;SDS011;68429;50.958;3.592;2023-08-07T02:01:20;7.03;;;3.25;;
54167;SDS011;68429;50.958;3.592;2023-08-07T02:03:45;5.60;;;2.75;;
54167;SDS011;68429;50.958;3.592;2023-08-07T02:06:11;5.15;;;2.90;;
54167;SDS011;68429;50.958;3.592;2023-08-07T02:08:37;9.50;;;3.13;;
54167;SDS011;68429;50.958;3.592;2023-08-07T02:11:02;7.65;;;2.83;;
54167;SDS011;68429;50.958;3.592;2023-08-07T02:13:28;6.63;;;2.78;;
54167;SDS011;68429;50.958;3.592;2023-08-07T02:15:53;9.85;;;2.83;;
54167;SDS011;68429;50.958;3.592;2023-08-07T02:18:19;7.55;;;2.70;;
54167;SDS011;68429;50.958;3.592;2023-08-07T02:20:45;4.10;;;2.63;;
54167;SDS011;68429;50.958;3.592;2023-08-07T02:23:11;11.75;;;3.60;;
54167;SDS011;68429;50.958;3.592;2023-08-07T02:25:37;6.22;;;2.97;;
54167;SDS011;68429;50.958;3.592;2023-08-07T02:28:03;14.68;;;3.47;;
54167;SDS011;68429;50.958;3.592;2023-08-07T02:30:28;7.20;;;2.35;;
54167;SDS011;68429;50.958;3.592;2023-08-07T02:32:55;11.68;;;2.95;;
54167;SDS011;68429;50.958;3.592;2023-08-07T02:35:21;6.85;;;2.55;;
54167;SDS011;68429;50.958;3.592;2023-08-07T02:37:47;6.93;;;2.67;;
54167;SDS011;68429;50.958;3.592;2023-08-07T02:40:13;5.38;;;2.92;;
54167;SDS011;68429;50.958;3.592;2023-08-07T02:42:40;6.72;;;2.95;;
54167;SDS011;68429;50.958;3.592;2023-08-07T02:45:07;7.03;;;3.10;;
54167;SDS011;68429;50.958;3.592;2023-08-07T02:47:33;7.07;;;3.22;;
54167;SDS011;68429;50.958;3.592;2023-08-07T02:49:59;7.72;;;3.40;;
54167;SDS011;68429;50.958;3.592;2023-08-07T02:52:24;7.60;;;3.00;;
54167;SDS011;68429;50.958;3.592;2023-08-07T02:54:50;6.93;;;3.40;;
54167;SDS011;68429;50.958;3.592;2023-08-07T02:57:15;9.02;;;3.00;;
54167;SDS011;68429;50.958;3.592;2023-08-07T02:59:41;6.60;;;2.90;;
54167;SDS011;68429;50.958;3.592;2023-08-07T03:02:07;9.50;;;3.03;;
54167;SDS011;68429;50.958;3.592;2023-08-07T03:04:32;8.35;;;3.60;;
54167;SDS011;68429;50.958;3.592;2023-08-07T03:06:58;6.40;;;3.15;;
54167;SDS011;68429;50.958;3.592;2023-08-07T03:09:24;5.63;;;3.17;;
54167;SDS011;68429;50.958;3.592;2023-08-07T03:11:50;8.00;;;3.17;;
54167;SDS011;68429;50.958;3.592;2023-08-07T03:14:15;9.38;;;3.67;;
54167;SDS011;68429;50.958;3.592;2023-08-07T03:16:41;7.03;;;2.85;;
54167;SDS011;68429;50.958;3.592;2023-08-07T03:19:07;6.65;;;3.20;;
54167;SDS011;68429;50.958;3.592;2023-08-07T03:21:32;5.82;;;3.17;;
54167;SDS011;68429;50.958;3.592;2023-08-07T03:23:58;11.50;;;3.58;;
54167;SDS011;68429;50.958;3.592;2023-08-07T03:26:24;6.32;;;3.53;;
54167;SDS011;68429;50.958;3.592;2023-08-07T03:28:50;7.07;;;2.83;;
54167;SDS011;68429;50.958;3.592;2023-08-07T03:31:16;7.47;;;3.65;;
54167;SDS011;68429;50.958;3.592;2023-08-07T03:33:42;6.75;;;3.20;;
54167;SDS011;68429;50.958;3.592;2023-08-07T03:36:07;6.65;;;2.80;;
54167;SDS011;68429;50.958;3.592;2023-08-07T03:38:34;10.15;;;3.75;;
54167;SDS011;68429;50.958;3.592;2023-08-07T03:40:59;5.70;;;3.30;;
54167;SDS011;68429;50.958;3.592;2023-08-07T03:43:25;9.48;;;3.22;;
54167;SDS011;68429;50.958;3.592;2023-08-07T03:45:54;6.07;;;3.20;;
54167;SDS011;68429;50.958;3.592;2023-08-07T03:48:21;8.82;;;3.28;;
54167;SDS011;68429;50.958;3.592;2023-08-07T03:50:47;8.65;;;3.60;;
54167;SDS011;68429;50.958;3.592;2023-08-07T03:53:13;7.90;;;3.80;;
54167;SDS011;68429;50.958;3.592;2023-08-07T03:55:38;9.18;;;3.40;;
54167;SDS011;68429;50.958;3.592;2023-08-07T03:58:04;9.07;;;3.72;;
54167;SDS011;68429;50.958;3.592;2023-08-07T04:00:30;8.45;;;3.40;;
54167;SDS011;68429;50.958;3.592;2023-08-07T04:02:55;9.93;;;3.53;;
54167;SDS011;68429;50.958;3.592;2023-08-07T04:05:21;8.45;;;3.63;;
54167;SDS011;68429;50.958;3.592;2023-08-07T04:07:47;7.85;;;3.92;;
54167;SDS011;68429;50.958;3.592;2023-08-07T04:10:13;8.20;;;3.78;;
54167;SDS011;68429;50.958;3.592;2023-08-07T04:12:38;11.95;;;3.78;;
54167;SDS011;68429;50.958;3.592;2023-08-07T04:15:04;13.20;;;3.92;;
54167;SDS011;68429;50.958;3.592;2023-08-07T04:17:31;7.97;;;3.60;;
54167;SDS011;68429;50.958;3.592;2023-08-07T04:19:57;9.43;;;3.60;;
54167;SDS011;68429;50.958;3.592;2023-08-07T04:22:22;9.45;;;3.65;;
54167;SDS011;68429;50.958;3.592;2023-08-07T04:24:48;8.85;;;3.60;;
54167;SDS011;68429;50.958;3.592;2023-08-07T04:27:14;10.40;;;4.13;;
54167;SDS011;68429;50.958;3.592;2023-08-07T04:29:39;8.90;;;3.45;;
54167;SDS011;68429;50.958;3.592;2023-08-07T04:32:05;6.55;;;3.58;;
54167;SDS011;68429;50.958;3.592;2023-08-07T04:34:31;8.63;;;3.65;;
54167;SDS011;68429;50.958;3.592;2023-08-07T04:36:57;10.90;;;3.95;;
54167;SDS011;68429;50.958;3.592;2023-08-07T04:39:22;7.82;;;3.85;;
54167;SDS011;68429;50.958;3.592;2023-08-07T04:41:48;10.27;;;3.90;;
54167;SDS011;68429;50.958;3.592;2023-08-07T04:44:16;5.85;;;3.72;;
54167;SDS011;68429;50.958;3.592;2023-08-07T04:46:42;6.75;;;3.78;;
54167;SDS011;68429;50.958;3.592;2023-08-07T04:49:08;8.05;;;4.70;;
54167;SDS011;68429;50.958;3.592;2023-08-07T04:51:33;10.00;;;4.13;;
54167;SDS011;68429;50.958;3.592;2023-08-07T04:53:59;11.40;;;4.63;;
54167;SDS011;68429;50.958;3.592;2023-08-07T04:56:25;8.82;;;4.50;;
54167;SDS011;68429;50.958;3.592;2023-08-07T04:58:50;9.90;;;4.72;;
54167;SDS011;68429;50.958;3.592;2023-08-07T05:01:16;10.18;;;4.88;;
54167;SDS011;68429;50.958;3.592;2023-08-07T05:03:42;9.05;;;4.85;;
54167;SDS011;68429;50.958;3.592;2023-08-07T05:06:07;11.13;;;4.55;;
54167;SDS011;68429;50.958;3.592;2023-08-07T05:08:33;6.82;;;4.68;;
54167;SDS011;68429;50.958;3.592;2023-08-07T05:10:58;10.80;;;4.53;;
54167;SDS011;68429;50.958;3.592;2023-08-07T05:13:24;12.25;;;4.55;;
54167;SDS011;68429;50.958;3.592;2023-08-07T05:15:50;11.20;;;5.43;;
54167;SDS011;68429;50.958;3.592;2023-08-07T05:18:16;10.55;;;5.22;;
54167;SDS011;68429;50.958;3.592;2023-08-07T05:20:42;13.25;;;5.15;;
54167;SDS011;68429;50.958;3.592;2023-08-07T05:23:08;10.55;;;5.10;;
54167;SDS011;68429;50.958;3.592;2023-08-07T05:25:34;10.10;;;5.57;;
54167;SDS011;68429;50.958;3.592;2023-08-07T05:27:59;10.75;;;5.50;;
54167;SDS011;68429;50.958;3.592;2023-08-07T05:30:25;10.98;;;4.88;;
54167;SDS011;68429;50.958;3.592;2023-08-07T05:32:50;9.75;;;5.03;;
54167;SDS011;68429;50.958;3.592;2023-08-07T05:35:16;10.00;;;6.07;;
54167;SDS011;68429;50.958;3.592;2023-08-07T05:37:42;10.23;;;5.72;;
54167;SDS011;68429;50.958;3.592;2023-08-07T05:40:07;12.32;;;6.43;;
54167;SDS011;68429;50.958;3.592;2023-08-07T05:42:36;8.05;;;6.38;;
54167;SDS011;68429;50.958;3.592;2023-08-07T05:45:02;10.95;;;6.05;;
54167;SDS011;68429;50.958;3.592;2023-08-07T05:47:29;10.98;;;6.00;;
54167;SDS011;68429;50.958;3.592;2023-08-07T05:49:54;10.30;;;5.47;;
54167;SDS011;68429;50.958;3.592;2023-08-07T05:52:20;12.95;;;6.38;;
54167;SDS011;68429;50.958;3.592;2023-08-07T05:54:46;11.60;;;5.72;;
54167;SDS011;68429;50.958;3.592;2023-08-07T05:57:12;11.57;;;5.60;;
54167;SDS011;68429;50.958;3.592;2023-08-07T05:59:37;10.88;;;5.38;;
54167;SDS011;68429;50.958;3.592;2023-08-07T06:02:05;9.93;;;5.07;;
54167;SDS011;68429;50.958;3.592;2023-08-07T06:04:31;14.18;;;5.30;;
54167;SDS011;68429;50.958;3.592;2023-08-07T06:06:57;18.85;;;5.43;;
54167;SDS011;68429;50.958;3.592;2023-08-07T06:09:23;8.95;;;5.30;;
54167;SDS011;68429;50.958;3.592;2023-08-07T06:11:48;12.27;;;6.07;;
54167;SDS011;68429;50.958;3.592;2023-08-07T06:14:14;12.32;;;5.07;;
54167;SDS011;68429;50.958;3.592;2023-08-07T06:16:40;8.55;;;4.47;;
54167;SDS011;68429;50.958;3.592;2023-08-07T06:19:05;9.60;;;5.05;;
54167;SDS011;68429;50.958;3.592;2023-08-07T06:21:31;11.57;;;5.32;;
54167;SDS011;68429;50.958;3.592;2023-08-07T06:23:58;7.05;;;4.60;;
54167;SDS011;68429;50.958;3.592;2023-08-07T06:26:23;11.68;;;4.88;;
54167;SDS011;68429;50.958;3.592;2023-08-07T06:28:49;8.13;;;4.47;;
54167;SDS011;68429;50.958;3.592;2023-08-07T06:31:15;6.90;;;4.40;;
54167;SDS011;68429;50.958;3.592;2023-08-07T06:33:41;7.35;;;4.25;;
54167;SDS011;68429;50.958;3.592;2023-08-07T06:36:07;5.97;;;3.78;;
54167;SDS011;68429;50.958;3.592;2023-08-07T06:38:33;15.77;;;3.95;;
54167;SDS011;68429;50.958;3.592;2023-08-07T06:40:59;8.07;;;3.58;;
54167;SDS011;68429;50.958;3.592;2023-08-07T06:43:25;5.60;;;3.53;;
54167;SDS011;68429;50.958;3.592;2023-08-07T06:45:55;6.95;;;3.78;;
54167;SDS011;68429;50.958;3.592;2023-08-07T06:48:21;5.03;;;3.28;;
54167;SDS011;68429;50.958;3.592;2023-08-07T06:50:48;7.13;;;3.20;;
54167;SDS011;68429;50.958;3.592;2023-08-07T06:53:14;8.27;;;3.60;;
54167;SDS011;68429;50.958;3.592;2023-08-07T06:55:43;7.03;;;3.30;;
54167;SDS011;68429;50.958;3.592;2023-08-07T07:00:35;9.63;;;3.65;;
54167;SDS011;68429;50.958;3.592;2023-08-07T07:03:02;5.95;;;3.22;;
54167;SDS011;68429;50.958;3.592;2023-08-07T07:05:28;8.40;;;3.67;;
54167;SDS011;68429;50.958;3.592;2023-08-07T07:07:55;9.60;;;3.45;;
54167;SDS011;68429;50.958;3.592;2023-08-07T07:10:22;14.50;;;3.83;;
54167;SDS011;68429;50.958;3.592;2023-08-07T07:12:47;7.25;;;3.55;;
54167;SDS011;68429;50.958;3.592;2023-08-07T07:15:13;8.20;;;3.97;;
54167;SDS011;68429;50.958;3.592;2023-08-07T07:17:39;5.75;;;2.90;;
54167;SDS011;68429;50.958;3.592;2023-08-07T07:20:05;6.18;;;3.58;;
54167;SDS011;68429;50.958;3.592;2023-08-07T07:22:34;4.15;;;2.90;;
54167;SDS011;68429;50.958;3.592;2023-08-07T07:24:59;8.63;;;3.17;;
54167;SDS011;68429;50.958;3.592;2023-08-07T07:27:25;5.03;;;2.75;;
54167;SDS011;68429;50.958;3.592;2023-08-07T07:29:51;10.68;;;3.03;;
54167;SDS011;68429;50.958;3.592;2023-08-07T07:32:17;7.22;;;3.15;;
54167;SDS011;68429;50.958;3.592;2023-08-07T07:34:43;8.48;;;2.50;;
54167;SDS011;68429;50.958;3.592;2023-08-07T07:37:09;10.57;;;3.30;;
54167;SDS011;68429;50.958;3.592;2023-08-07T07:39:35;6.35;;;2.33;;
54167;SDS011;68429;50.958;3.592;2023-08-07T07:42:01;5.57;;;2.53;;
54167;SDS011;68429;50.958;3.592;2023-08-07T07:44:27;9.70;;;3.30;;
54167;SDS011;68429;50.958;3.592;2023-08-07T07:46:52;4.95;;;2.55;;
54167;SDS011;68429;50.958;3.592;2023-08-07T07:49:18;8.05;;;3.13;;
54167;SDS011;68429;50.958;3.592;2023-08-07T07:51:43;4.30;;;2.17;;
54167;SDS011;68429;50.958;3.592;2023-08-07T07:54:09;5.68;;;2.15;;
54167;SDS011;68429;50.958;3.592;2023-08-07T07:56:35;7.50;;;2.45;;
54167;SDS011;68429;50.958;3.592;2023-08-07T07:59:01;6.03;;;2.10;;
54167;SDS011;68429;50.958;3.592;2023-08-07T08:01:27;5.47;;;2.22;;
54167;SDS011;68429;50.958;3.592;2023-08-07T08:03:53;6.32;;;2.78;;
54167;SDS011;68429;50.958;3.592;2023-08-07T08:06:19;5.30;;;2.13;;
54167;SDS011;68429;50.958;3.592;2023-08-07T08:08:44;4.93;;;1.75;;
54167;SDS011;68429;50.958;3.592;2023-08-07T08:11:10;4.53;;;2.00;;
54167;SDS011;68429;50.958;3.592;2023-08-07T08:13:36;4.22;;;2.33;;
54167;SDS011;68429;50.958;3.592;2023-08-07T08:16:04;4.38;;;2.15;;
54167;SDS011;68429;50.958;3.592;2023-08-07T08:18:30;4.57;;;1.70;;
54167;SDS011;68429;50.958;3.592;2023-08-07T08:20:56;2.22;;;1.70;;
54167;SDS011;68429;50.958;3.592;2023-08-07T08:23:22;3.88;;;2.10;;
54167;SDS011;68429;50.958;3.592;2023-08-07T08:25:48;5.15;;;1.75;;
54167;SDS011;68429;50.958;3.592;2023-08-07T08:28:14;4.75;;;1.67;;
54167;SDS011;68429;50.958;3.592;2023-08-07T08:30:40;3.53;;;1.70;;
54167;SDS011;68429;50.958;3.592;2023-08-07T08:33:06;2.78;;;1.80;;
54167;SDS011;68429;50.958;3.592;2023-08-07T08:35:34;2.08;;;1.33;;
54167;SDS011;68429;50.958;3.592;2023-08-07T08:38:00;6.35;;;1.50;;
54167;SDS011;68429;50.958;3.592;2023-08-07T08:40:26;5.28;;;1.90;;
54167;SDS011;68429;50.958;3.592;2023-08-07T08:42:52;4.60;;;1.90;;
54167;SDS011;68429;50.958;3.592;2023-08-07T08:45:22;3.72;;;1.70;;
54167;SDS011;68429;50.958;3.592;2023-08-07T08:47:50;5.10;;;1.65;;
54167;SDS011;68429;50.958;3.592;2023-08-07T08:50:18;5.65;;;1.73;;
54167;SDS011;68429;50.958;3.592;2023-08-07T08:52:44;3.45;;;1.90;;
54167;SDS011;68429;50.958;3.592;2023-08-07T08:55:11;4.60;;;1.85;;
54167;SDS011;68429;50.958;3.592;2023-08-07T08:57:38;5.18;;;1.40;;
54167;SDS011;68429;50.958;3.592;2023-08-07T09:00:05;1.45;;;1.33;;
54167;SDS011;68429;50.958;3.592;2023-08-07T09:02:43;1.55;;;1.40;;
54167;SDS011;68429;50.958;3.592;2023-08-07T09:05:15;2.80;;;1.27;;
54167;SDS011;68429;50.958;3.592;2023-08-07T09:07:42;5.28;;;1.55;;
54167;SDS011;68429;50.958;3.592;2023-08-07T09:10:09;2.05;;;1.23;;
54167;SDS011;68429;50.958;3.592;2023-08-07T09:13:00;4.10;;;1.40;;
54167;SDS011;68429;50.958;3.592;2023-08-07T09:15:25;5.18;;;1.40;;
54167;SDS011;68429;50.958;3.592;2023-08-07T09:17:54;2.65;;;1.13;;
54167;SDS011;68429;50.958;3.592;2023-08-07T09:20:20;3.03;;;1.38;;
54167;SDS011;68429;50.958;3.592;2023-08-07T09:22:48;3.70;;;1.50;;
54167;SDS011;68429;50.958;3.592;2023-08-07T09:25:14;2.08;;;1.48;;
54167;SDS011;68429;50.958;3.592;2023-08-07T09:27:39;1.48;;;1.20;;
54167;SDS011;68429;50.958;3.592;2023-08-07T09:30:06;3.92;;;1.60;;
54167;SDS011;68429;50.958;3.592;2023-08-07T09:32:35;5.10;;;1.50;;
54167;SDS011;68429;50.958;3.592;2023-08-07T09:35:05;3.10;;;1.60;;
54167;SDS011;68429;50.958;3.592;2023-08-07T09:37:31;1.95;;;1.50;;
54167;SDS011;68429;50.958;3.592;2023-08-07T09:39:59;4.18;;;1.70;;
54167;SDS011;68429;50.958;3.592;2023-08-07T09:42:26;2.13;;;1.67;;
54167;SDS011;68429;50.958;3.592;2023-08-07T09:44:57;3.55;;;1.27;;
54167;SDS011;68429;50.958;3.592;2023-08-07T09:47:24;2.60;;;1.67;;
54167;SDS011;68429;50.958;3.592;2023-08-07T09:49:50;2.42;;;1.83;;
54167;SDS011;68429;50.958;3.592;2023-08-07T09:52:19;1.42;;;1.00;;
54167;SDS011;68429;50.958;3.592;2023-08-07T09:54:45;1.55;;;1.00;;
54167;SDS011;68429;50.958;3.592;2023-08-07T09:57:11;3.50;;;1.50;;
54167;SDS011;68429;50.958;3.592;2023-08-07T09:59:36;3.47;;;1.38;;
54167;SDS011;68429;50.958;3.592;2023-08-07T10:02:02;3.38;;;1.17;;
54167;SDS011;68429;50.958;3.592;2023-08-07T10:04:29;1.60;;;1.40;;
54167;SDS011;68429;50.958;3.592;2023-08-07T10:06:56;3.40;;;1.40;;
54167;SDS011;68429;50.958;3.592;2023-08-07T10:09:22;2.55;;;1.17;;
54167;SDS011;68429;50.958;3.592;2023-08-07T10:11:48;3.15;;;1.10;;
54167;SDS011;68429;50.958;3.592;2023-08-07T10:14:15;2.88;;;1.52;;
54167;SDS011;68429;50.958;3.592;2023-08-07T10:16:41;2.65;;;1.33;;
54167;SDS011;68429;50.958;3.592;2023-08-07T10:19:08;1.40;;;1.10;;
54167;SDS011;68429;50.958;3.592;2023-08-07T10:21:38;3.42;;;1.13;;
54167;SDS011;68429;50.958;3.592;2023-08-07T10:24:05;4.97;;;1.50;;
54167;SDS011;68429;50.958;3.592;2023-08-07T10:26:32;4.63;;;1.00;;
54167;SDS011;68429;50.958;3.592;2023-08-07T10:28:59;1.40;;;1.08;;
54167;SDS011;68429;50.958;3.592;2023-08-07T10:31:27;3.30;;;1.13;;
54167;SDS011;68429;50.958;3.592;2023-08-07T10:33:55;1.92;;;1.25;;
54167;SDS011;68429;50.958;3.592;2023-08-07T10:36:20;3.63;;;1.20;;
54167;SDS011;68429;50.958;3.592;2023-08-07T10:38:49;2.30;;;1.30;;
54167;SDS011;68429;50.958;3.592;2023-08-07T10:41:37;2.20;;;1.30;;
54167;SDS011;68429;50.958;3.592;2023-08-07T10:44:19;2.55;;;0.98;;
54167;SDS011;68429;50.958;3.592;2023-08-07T10:46:49;3.28;;;1.13;;
54167;SDS011;68429;50.958;3.592;2023-08-07T10:52:15;1.35;;;1.20;;
54167;SDS011;68429;50.958;3.592;2023-08-07T10:54:44;2.55;;;1.20;;
54167;SDS011;68429;50.958;3.592;2023-08-07T10:57:15;1.70;;;1.02;;
54167;SDS011;68429;50.958;3.592;2023-08-07T11:02:29;4.13;;;1.33;;
54167;SDS011;68429;50.958;3.592;2023-08-07T11:04:56;1.35;;;0.90;;
54167;SDS011;68429;50.958;3.592;2023-08-07T11:07:29;1.48;;;0.98;;
54167;SDS011;68429;50.958;3.592;2023-08-07T11:09:56;0.93;;;0.75;;
54167;SDS011;68429;50.958;3.592;2023-08-07T11:12:26;1.60;;;1.10;;
54167;SDS011;68429;50.958;3.592;2023-08-07T11:14:55;3.70;;;1.27;;
54167;SDS011;68429;50.958;3.592;2023-08-07T11:17:24;1.40;;;0.95;;
54167;SDS011;68429;50.958;3.592;2023-08-07T11:19:51;0.90;;;0.90;;
54167;SDS011;68429;50.958;3.592;2023-08-07T11:22:16;3.92;;;0.93;;
54167;SDS011;68429;50.958;3.592;2023-08-07T11:24:42;3.50;;;0.90;;
54167;SDS011;68429;50.958;3.592;2023-08-07T11:27:08;4.93;;;1.30;;
54167;SDS011;68429;50.958;3.592;2023-08-07T11:29:33;5.95;;;0.80;;
54167;SDS011;68429;50.958;3.592;2023-08-07T11:31:59;5.45;;;0.98;;
54167;SDS011;68429;50.958;3.592;2023-08-07T11:34:25;0.82;;;0.77;;
54167;SDS011;68429;50.958;3.592;2023-08-07T11:36:51;1.73;;;0.60;;
54167;SDS011;68429;50.958;3.592;2023-08-07T11:39:16;0.70;;;0.60;;
54167;SDS011;68429;50.958;3.592;2023-08-07T11:41:44;3.10;;;0.90;;
54167;SDS011;68429;50.958;3.592;2023-08-07T11:44:10;2.72;;;0.80;;
54167;SDS011;68429;50.958;3.592;2023-08-07T11:46:36;0.73;;;0.60;;
54167;SDS011;68429;50.958;3.592;2023-08-07T11:49:02;0.50;;;0.50;;
54167;SDS011;68429;50.958;3.592;2023-08-07T11:51:29;0.63;;;0.55;;
54167;SDS011;68429;50.958;3.592;2023-08-07T11:53:55;1.38;;;0.70;;
54167;SDS011;68429;50.958;3.592;2023-08-07T11:56:24;1.70;;;1.02;;
54167;SDS011;68429;50.958;3.592;2023-08-07T11:58:50;1.33;;;0.70;;
54167;SDS011;68429;50.958;3.592;2023-08-07T12:01:19;2.43;;;0.80;;
54167;SDS011;68429;50.958;3.592;2023-08-07T12:03:53;1.05;;;0.80;;
54167;SDS011;68429;50.958;3.592;2023-08-07T12:06:20;1.13;;;0.77;;
54167;SDS011;68429;50.958;3.592;2023-08-07T12:08:47;2.75;;;1.05;;
54167;SDS011;68429;50.958;3.592;2023-08-07T12:11:16;1.10;;;0.73;;
54167;SDS011;68429;50.958;3.592;2023-08-07T12:13:43;0.98;;;0.65;;
54167;SDS011;68429;50.958;3.592;2023-08-07T12:16:10;1.20;;;0.60;;
54167;SDS011;68429;50.958;3.592;2023-08-07T12:18:42;1.73;;;0.95;;
54167;SDS011;68429;50.958;3.592;2023-08-07T12:21:17;2.90;;;1.10;;
54167;SDS011;68429;50.958;3.592;2023-08-07T12:23:45;1.33;;;0.80;;
54167;SDS011;68429;50.958;3.592;2023-08-07T12:26:14;0.77;;;0.60;;
54167;SDS011;68429;50.958;3.592;2023-08-07T12:28:41;2.60;;;0.90;;
54167;SDS011;68429;50.958;3.592;2023-08-07T12:31:06;2.42;;;1.02;;
54167;SDS011;68429;50.958;3.592;2023-08-07T12:33:32;2.00;;;0.98;;
54167;SDS011;68429;50.958;3.592;2023-08-07T12:35:58;1.35;;;0.95;;
54167;SDS011;68429;50.958;3.592;2023-08-07T12:38:24;0.88;;;0.52;;
54167;SDS011;68429;50.958;3.592;2023-08-07T12:40:50;0.77;;;0.52;;
54167;SDS011;68429;50.958;3.592;2023-08-07T12:43:16;2.65;;;0.70;;
54167;SDS011;68429;50.958;3.592;2023-08-07T12:45:42;0.50;;;0.47;;
54167;SDS011;68429;50.958;3.592;2023-08-07T12:48:08;0.68;;;0.40;;
54167;SDS011;68429;50.958;3.592;2023-08-07T12:50:34;1.30;;;0.60;;
54167;SDS011;68429;50.958;3.592;2023-08-07T12:53:00;1.48;;;0.93;;
54167;SDS011;68429;50.958;3.592;2023-08-07T12:55:26;1.67;;;0.70;;
54167;SDS011;68429;50.958;3.592;2023-08-07T12:57:53;3.03;;;0.80;;
54167;SDS011;68429;50.958;3.592;2023-08-07T13:00:19;1.35;;;0.85;;
54167;SDS011;68429;50.958;3.592;2023-08-07T13:02:46;1.33;;;0.50;;
54167;SDS011;68429;50.958;3.592;2023-08-07T13:05:13;1.20;;;0.60;;
54167;SDS011;68429;50.958;3.592;2023-08-07T13:07:42;5.85;;;0.80;;
54167;SDS011;68429;50.958;3.592;2023-08-07T13:10:09;2.63;;;0.60;;
54167;SDS011;68429;50.958;3.592;2023-08-07T13:12:36;2.60;;;0.80;;
54167;SDS011;68429;50.958;3.592;2023-08-07T13:15:04;0.50;;;0.50;;
54167;SDS011;68429;50.958;3.592;2023-08-07T13:17:31;6.55;;;0.80;;
54167;SDS011;68429;50.958;3.592;2023-08-07T13:19:57;1.27;;;0.63;;
54167;SDS011;68429;50.958;3.592;2023-08-07T13:22:24;0.65;;;0.60;;
54167;SDS011;68429;50.958;3.592;2023-08-07T13:24:49;3.00;;;0.63;;
54167;SDS011;68429;50.958;3.592;2023-08-07T13:27:15;1.42;;;0.60;;
54167;SDS011;68429;50.958;3.592;2023-08-07T13:29:41;2.80;;;1.00;;
54167;SDS011;68429;50.958;3.592;2023-08-07T13:32:06;2.40;;;0.80;;
54167;SDS011;68429;50.958;3.592;2023-08-07T13:34:34;0.73;;;0.50;;
54167;SDS011;68429;50.958;3.592;2023-08-07T13:37:01;2.28;;;0.70;;
54167;SDS011;68429;50.958;3.592;2023-08-07T13:39:27;1.05;;;0.68;;
54167;SDS011;68429;50.958;3.592;2023-08-07T13:41:53;4.75;;;0.98;;
54167;SDS011;68429;50.958;3.592;2023-08-07T13:44:19;4.30;;;0.90;;
54167;SDS011;68429;50.958;3.592;2023-08-07T13:46:45;1.08;;;0.50;;
54167;SDS011;68429;50.958;3.592;2023-08-07T13:49:12;3.13;;;0.73;;
54167;SDS011;68429;50.958;3.592;2023-08-07T13:51:38;1.63;;;0.60;;
54167;SDS011;68429;50.958;3.592;2023-08-07T13:54:05;3.17;;;0.85;;
54167;SDS011;68429;50.958;3.592;2023-08-07T13:56:31;1.08;;;0.75;;
54167;SDS011;68429;50.958;3.592;2023-08-07T13:58:56;0.63;;;0.40;;
54167;SDS011;68429;50.958;3.592;2023-08-07T14:01:22;2.65;;;0.57;;
54167;SDS011;68429;50.958;3.592;2023-08-07T14:03:47;1.83;;;0.65;;
54167;SDS011;68429;50.958;3.592;2023-08-07T14:06:13;1.85;;;0.70;;
54167;SDS011;68429;50.958;3.592;2023-08-07T14:08:39;2.45;;;0.90;;
54167;SDS011;68429;50.958;3.592;2023-08-07T14:11:04;1.50;;;0.70;;
54167;SDS011;68429;50.958;3.592;2023-08-07T14:13:31;3.50;;;0.85;;
54167;SDS011;68429;50.958;3.592;2023-08-07T14:15:56;3.40;;;0.98;;
54167;SDS011;68429;50.958;3.592;2023-08-07T14:18:22;1.95;;;0.70;;
54167;SDS011;68429;50.958;3.592;2023-08-07T14:20:48;2.28;;;0.70;;
54167;SDS011;68429;50.958;3.592;2023-08-07T14:23:13;3.67;;;0.80;;
54167;SDS011;68429;50.958;3.592;2023-08-07T14:25:39;1.13;;;1.02;;
54167;SDS011;68429;50.958;3.592;2023-08-07T14:28:04;1.73;;;1.00;;
54167;SDS011;68429;50.958;3.592;2023-08-07T14:30:32;2.53;;;1.00;;
54167;SDS011;68429;50.958;3.592;2023-08-07T14:32:58;2.30;;;0.90;;
54167;SDS011;68429;50.958;3.592;2023-08-07T14:35:24;2.58;;;0.90;;
54167;SDS011;68429;50.958;3.592;2023-08-07T14:37:50;2.33;;;1.05;;
54167;SDS011;68429;50.958;3.592;2023-08-07T14:40:15;1.75;;;1.35;;
54167;SDS011;68429;50.958;3.592;2023-08-07T14:42:41;3.50;;;1.10;;
54167;SDS011;68429;50.958;3.592;2023-08-07T14:45:07;2.85;;;1.40;;
54167;SDS011;68429;50.958;3.592;2023-08-07T14:47:33;2.97;;;1.20;;
54167;SDS011;68429;50.958;3.592;2023-08-07T14:49:58;4.35;;;1.60;;
54167;SDS011;68429;50.958;3.592;2023-08-07T14:52:24;4.60;;;1.20;;
54167;SDS011;68429;50.958;3.592;2023-08-07T14:54:50;4.22;;;1.10;;